createdAt,value
2022-10-05T00:00:59.000Z,10.99
2022-10-05T00:01:59.000Z,10.99
2022-10-05T00:02:59.000Z,10.99
2022-10-05T00:03:59.000Z,11.02
2022-10-05T00:04:59.000Z,11.01
2022-10-05T00:05:59.000Z,11.01
2022-10-05T00:06:59.000Z,10.95
2022-10-05T00:07:59.000Z,10.98
2022-10-05T00:08:59.000Z,10.95
2022-10-05T00:09:59.000Z,10.95
2022-10-05T00:10:59.000Z,10.94
2022-10-05T00:11:59.000Z,10.94
2022-10-05T00:12:59.000Z,10.91
2022-10-05T00:13:59.000Z,10.94
2022-10-05T00:14:59.000Z,10.91
2022-10-05T00:15:59.000Z,10.94
2022-10-05T00:16:59.000Z,10.95
2022-10-05T00:17:59.000Z,10.94
2022-10-05T00:18:59.000Z,10.94
2022-10-05T00:19:59.000Z,10.94
2022-10-05T00:20:59.000Z,10.93
2022-10-05T00:21:59.000Z,10.95
2022-10-05T00:22:59.000Z,10.94
2022-10-05T00:23:59.000Z,10.94
2022-10-05T00:24:59.000Z,10.95
2022-10-05T00:25:59.000Z,10.93
2022-10-05T00:26:59.000Z,10.94
2022-10-05T00:27:59.000Z,10.93
2022-10-05T00:28:59.000Z,10.91
2022-10-05T00:29:59.000Z,10.87
2022-10-05T00:30:59.000Z,10.88
2022-10-05T00:31:59.000Z,10.87
2022-10-05T00:32:59.000Z,10.84
2022-10-05T00:33:59.000Z,10.86
2022-10-05T00:34:59.000Z,10.84
2022-10-05T00:35:59.000Z,10.86
2022-10-05T00:36:59.000Z,10.84
2022-10-05T00:37:59.000Z,10.87
2022-10-05T00:38:59.000Z,10.81
2022-10-05T00:39:59.000Z,10.84
2022-10-05T00:40:59.000Z,10.81
2022-10-05T00:41:59.000Z,10.81
2022-10-05T00:42:59.000Z,10.81
2022-10-05T00:43:59.000Z,10.76
2022-10-05T00:44:59.000Z,10.76
2022-10-05T00:45:59.000Z,10.75
2022-10-05T00:46:59.000Z,10.76
2022-10-05T00:47:59.000Z,10.72
2022-10-05T00:48:59.000Z,10.73
2022-10-05T00:49:59.000Z,10.73
2022-10-05T00:50:59.000Z,10.69
2022-10-05T00:51:59.000Z,10.72
2022-10-05T00:52:59.000Z,10.70
2022-10-05T00:53:58.000Z,10.69
2022-10-05T00:54:58.000Z,10.68
2022-10-05T00:55:58.000Z,10.63
2022-10-05T00:56:58.000Z,10.66
2022-10-05T00:57:58.000Z,10.66
2022-10-05T00:58:58.000Z,10.66
2022-10-05T00:59:58.000Z,10.62
2022-10-05T01:00:58.000Z,10.62
2022-10-05T01:01:58.000Z,10.62
2022-10-05T01:02:58.000Z,10.62
2022-10-05T01:03:58.000Z,10.63
2022-10-05T01:04:58.000Z,10.63
2022-10-05T01:05:58.000Z,10.60
2022-10-05T01:06:58.000Z,10.62
2022-10-05T01:07:58.000Z,10.62
2022-10-05T01:08:58.000Z,10.65
2022-10-05T01:09:58.000Z,10.65
2022-10-05T01:10:58.000Z,10.68
2022-10-05T01:11:58.000Z,10.65
2022-10-05T01:12:58.000Z,10.68
2022-10-05T01:13:58.000Z,10.69
2022-10-05T01:14:58.000Z,10.70
2022-10-05T01:15:58.000Z,10.73
2022-10-05T01:16:58.000Z,10.75
2022-10-05T01:17:58.000Z,10.75
2022-10-05T01:18:58.000Z,10.73
2022-10-05T01:19:58.000Z,10.75
2022-10-05T01:20:58.000Z,10.78
2022-10-05T01:21:58.000Z,10.78
2022-10-05T01:22:58.000Z,10.78
2022-10-05T01:23:58.000Z,10.80
2022-10-05T01:24:58.000Z,10.81
2022-10-05T01:25:58.000Z,10.81
2022-10-05T01:26:58.000Z,10.81
2022-10-05T01:27:58.000Z,10.78
2022-10-05T01:28:58.000Z,10.84
2022-10-05T01:29:58.000Z,10.76
2022-10-05T01:30:58.000Z,10.80
2022-10-05T01:31:58.000Z,10.80
2022-10-05T01:32:58.000Z,10.75
2022-10-05T01:33:58.000Z,10.72
2022-10-05T01:34:58.000Z,10.72
2022-10-05T01:35:58.000Z,10.72
2022-10-05T01:36:58.000Z,10.72
2022-10-05T01:37:58.000Z,10.72
2022-10-05T01:38:58.000Z,10.73
2022-10-05T01:39:58.000Z,10.70
2022-10-05T01:40:58.000Z,10.72
2022-10-05T01:41:58.000Z,10.70
2022-10-05T01:42:58.000Z,10.73
2022-10-05T01:43:58.000Z,10.70
2022-10-05T01:44:58.000Z,10.69
2022-10-05T01:45:58.000Z,10.68
2022-10-05T01:46:58.000Z,10.66
2022-10-05T01:47:58.000Z,10.68
2022-10-05T01:48:58.000Z,10.69
2022-10-05T01:49:58.000Z,10.65
2022-10-05T01:50:58.000Z,10.66
2022-10-05T01:51:58.000Z,10.66
2022-10-05T01:52:58.000Z,10.60
2022-10-05T01:53:58.000Z,10.63
2022-10-05T01:54:58.000Z,10.62
2022-10-05T01:55:58.000Z,10.62
2022-10-05T01:56:58.000Z,10.62
2022-10-05T01:57:58.000Z,10.60
2022-10-05T01:58:58.000Z,10.60
2022-10-05T01:59:58.000Z,10.54
2022-10-05T02:00:58.000Z,10.55
2022-10-05T02:01:58.000Z,10.54
2022-10-05T02:02:58.000Z,10.54
2022-10-05T02:03:58.000Z,10.49
2022-10-05T02:04:58.000Z,10.46
2022-10-05T02:05:58.000Z,10.46
2022-10-05T02:06:58.000Z,10.43
2022-10-05T02:07:57.000Z,10.42
2022-10-05T02:08:57.000Z,10.36
2022-10-05T02:09:57.000Z,10.38
2022-10-05T02:10:57.000Z,10.42
2022-10-05T02:11:57.000Z,10.36
2022-10-05T02:12:57.000Z,10.34
2022-10-05T02:13:57.000Z,10.35
2022-10-05T02:14:57.000Z,10.34
2022-10-05T02:15:57.000Z,10.35
2022-10-05T02:16:57.000Z,10.32
2022-10-05T02:17:57.000Z,10.32
2022-10-05T02:18:57.000Z,10.31
2022-10-05T02:19:57.000Z,10.32
2022-10-05T02:20:57.000Z,10.29
2022-10-05T02:21:57.000Z,10.24
2022-10-05T02:22:57.000Z,10.24
2022-10-05T02:23:57.000Z,10.22
2022-10-05T02:24:57.000Z,10.18
2022-10-05T02:25:57.000Z,10.17
2022-10-05T02:26:57.000Z,10.17
2022-10-05T02:27:57.000Z,10.16
2022-10-05T02:28:57.000Z,10.13
2022-10-05T02:29:57.000Z,10.10
2022-10-05T02:30:57.000Z,10.13
2022-10-05T02:31:57.000Z,10.13
2022-10-05T02:32:57.000Z,10.11
2022-10-05T02:33:57.000Z,10.14
2022-10-05T02:34:57.000Z,10.10
2022-10-05T02:35:57.000Z,10.13
2022-10-05T02:36:57.000Z,10.13
2022-10-05T02:37:57.000Z,10.11
2022-10-05T02:38:57.000Z,10.14
2022-10-05T02:39:57.000Z,10.11
2022-10-05T02:40:57.000Z,10.13
2022-10-05T02:41:57.000Z,10.11
2022-10-05T02:42:57.000Z,10.14
2022-10-05T02:43:57.000Z,10.11
2022-10-05T02:44:57.000Z,10.14
2022-10-05T02:45:57.000Z,10.13
2022-10-05T02:46:57.000Z,10.16
2022-10-05T02:47:57.000Z,10.14
2022-10-05T02:48:57.000Z,10.11
2022-10-05T02:49:57.000Z,10.14
2022-10-05T02:50:57.000Z,10.11
2022-10-05T02:51:57.000Z,10.14
2022-10-05T02:52:57.000Z,10.07
2022-10-05T02:53:57.000Z,10.07
2022-10-05T02:54:57.000Z,10.06
2022-10-05T02:55:57.000Z,10.11
2022-10-05T02:56:57.000Z,10.07
2022-10-05T02:57:57.000Z,10.07
2022-10-05T02:58:57.000Z,10.07
2022-10-05T02:59:57.000Z,10.09
2022-10-05T03:00:57.000Z,10.04
2022-10-05T03:01:57.000Z,10.04
2022-10-05T03:02:57.000Z,10.01
2022-10-05T03:03:57.000Z,9.98
2022-10-05T03:04:57.000Z,9.99
2022-10-05T03:05:57.000Z,9.99
2022-10-05T03:06:57.000Z,9.96
2022-10-05T03:07:57.000Z,9.95
2022-10-05T03:08:57.000Z,9.96
2022-10-05T03:09:57.000Z,9.92
2022-10-05T03:10:57.000Z,9.91
2022-10-05T03:11:57.000Z,9.86
2022-10-05T03:12:57.000Z,9.89
2022-10-05T03:13:57.000Z,9.86
2022-10-05T03:14:57.000Z,9.83
2022-10-05T03:15:57.000Z,9.86
2022-10-05T03:16:57.000Z,9.86
2022-10-05T03:17:57.000Z,9.83
2022-10-05T03:18:57.000Z,9.80
2022-10-05T03:19:57.000Z,9.78
2022-10-05T03:20:57.000Z,9.78
2022-10-05T03:21:57.000Z,9.75
2022-10-05T03:22:56.000Z,9.75
2022-10-05T03:23:56.000Z,9.73
2022-10-05T03:24:56.000Z,9.73
2022-10-05T03:25:56.000Z,9.67
2022-10-05T03:26:56.000Z,9.70
2022-10-05T03:27:56.000Z,9.67
2022-10-05T03:28:56.000Z,9.67
2022-10-05T03:29:56.000Z,9.60
2022-10-05T03:30:56.000Z,9.60
2022-10-05T03:31:56.000Z,9.59
2022-10-05T03:32:56.000Z,9.55
2022-10-05T03:33:56.000Z,9.52
2022-10-05T03:34:56.000Z,9.52
2022-10-05T03:35:56.000Z,9.50
2022-10-05T03:36:56.000Z,9.55
2022-10-05T03:37:56.000Z,9.53
2022-10-05T03:38:56.000Z,9.52
2022-10-05T03:39:56.000Z,9.50
2022-10-05T03:40:56.000Z,9.50
2022-10-05T03:41:56.000Z,9.52
2022-10-05T03:42:56.000Z,9.48
2022-10-05T03:43:56.000Z,9.45
2022-10-05T03:44:56.000Z,9.45
2022-10-05T03:45:56.000Z,9.44
2022-10-05T03:46:56.000Z,9.42
2022-10-05T03:47:56.000Z,9.44
2022-10-05T03:48:56.000Z,9.45
2022-10-05T03:49:56.000Z,9.45
2022-10-05T03:50:56.000Z,9.41
2022-10-05T03:51:56.000Z,9.40
2022-10-05T03:52:56.000Z,9.44
2022-10-05T03:53:56.000Z,9.42
2022-10-05T03:54:56.000Z,9.41
2022-10-05T03:55:56.000Z,9.41
2022-10-05T03:56:56.000Z,9.41
2022-10-05T03:57:56.000Z,9.37
2022-10-05T03:58:56.000Z,9.38
2022-10-05T03:59:56.000Z,9.35
2022-10-05T04:00:56.000Z,9.40
2022-10-05T04:01:56.000Z,9.38
2022-10-05T04:02:56.000Z,9.38
2022-10-05T04:03:56.000Z,9.34
2022-10-05T04:04:56.000Z,9.37
2022-10-05T04:05:56.000Z,9.38
2022-10-05T04:06:56.000Z,9.38
2022-10-05T04:07:56.000Z,9.40
2022-10-05T04:08:56.000Z,9.34
2022-10-05T04:09:56.000Z,9.35
2022-10-05T04:10:56.000Z,9.37
2022-10-05T04:11:56.000Z,9.32
2022-10-05T04:12:56.000Z,9.35
2022-10-05T04:13:56.000Z,9.32
2022-10-05T04:14:56.000Z,9.30
2022-10-05T04:15:56.000Z,9.32
2022-10-05T04:16:56.000Z,9.32
2022-10-05T04:17:56.000Z,9.31
2022-10-05T04:18:56.000Z,9.26
2022-10-05T04:19:56.000Z,9.30
2022-10-05T04:20:56.000Z,9.31
2022-10-05T04:21:56.000Z,9.32
2022-10-05T04:22:56.000Z,9.30
2022-10-05T04:23:56.000Z,9.34
2022-10-05T04:24:56.000Z,9.34
2022-10-05T04:25:56.000Z,9.40
2022-10-05T04:26:56.000Z,9.41
2022-10-05T04:27:56.000Z,9.44
2022-10-05T04:28:56.000Z,9.45
2022-10-05T04:29:56.000Z,9.50
2022-10-05T04:30:56.000Z,9.49
2022-10-05T04:31:56.000Z,9.56
2022-10-05T04:32:56.000Z,9.58
2022-10-05T04:33:56.000Z,9.63
2022-10-05T04:34:56.000Z,9.63
2022-10-05T04:35:56.000Z,9.67
2022-10-05T04:36:55.000Z,9.68
2022-10-05T04:37:55.000Z,9.67
2022-10-05T04:38:55.000Z,9.71
2022-10-05T04:39:55.000Z,9.70
2022-10-05T04:40:55.000Z,9.68
2022-10-05T04:41:55.000Z,9.68
2022-10-05T04:42:55.000Z,9.71
2022-10-05T04:43:55.000Z,9.71
2022-10-05T04:44:55.000Z,9.75
2022-10-05T04:45:55.000Z,9.74
2022-10-05T04:46:55.000Z,9.74
2022-10-05T04:47:55.000Z,9.68
2022-10-05T04:48:55.000Z,9.70
2022-10-05T04:49:55.000Z,9.70
2022-10-05T04:50:55.000Z,9.71
2022-10-05T04:51:55.000Z,9.67
2022-10-05T04:52:55.000Z,9.62
2022-10-05T04:53:55.000Z,9.65
2022-10-05T04:54:55.000Z,9.62
2022-10-05T04:55:55.000Z,9.60
2022-10-05T04:56:55.000Z,9.62
2022-10-05T04:57:55.000Z,9.58
2022-10-05T04:58:55.000Z,9.58
2022-10-05T04:59:55.000Z,9.55
2022-10-05T05:00:55.000Z,9.55
2022-10-05T05:01:55.000Z,9.52
2022-10-05T05:02:55.000Z,9.52
2022-10-05T05:03:55.000Z,9.49
2022-10-05T05:04:55.000Z,9.49
2022-10-05T05:05:55.000Z,9.50
2022-10-05T05:06:55.000Z,9.48
2022-10-05T05:07:55.000Z,9.50
2022-10-05T05:08:55.000Z,9.50
2022-10-05T05:09:55.000Z,9.50
2022-10-05T05:10:55.000Z,9.49
2022-10-05T05:11:55.000Z,9.48
2022-10-05T05:12:55.000Z,9.50
2022-10-05T05:13:55.000Z,9.45
2022-10-05T05:14:55.000Z,9.50
2022-10-05T05:15:55.000Z,9.52
2022-10-05T05:16:55.000Z,9.50
2022-10-05T05:17:55.000Z,9.50
2022-10-05T05:18:55.000Z,9.52
2022-10-05T05:19:55.000Z,9.50
2022-10-05T05:20:55.000Z,9.52
2022-10-05T05:21:55.000Z,9.50
2022-10-05T05:22:55.000Z,9.50
2022-10-05T05:23:55.000Z,9.55
2022-10-05T05:24:55.000Z,9.56
2022-10-05T05:25:55.000Z,9.58
2022-10-05T05:26:55.000Z,9.59
2022-10-05T05:27:55.000Z,9.62
2022-10-05T05:28:55.000Z,9.62
2022-10-05T05:29:55.000Z,9.62
2022-10-05T05:30:55.000Z,9.65
2022-10-05T05:31:55.000Z,9.65
2022-10-05T05:32:55.000Z,9.67
2022-10-05T05:33:55.000Z,9.67
2022-10-05T05:34:55.000Z,9.70
2022-10-05T05:35:55.000Z,9.75
2022-10-05T05:36:55.000Z,9.74
2022-10-05T05:37:55.000Z,9.73
2022-10-05T05:38:55.000Z,9.80
2022-10-05T05:39:55.000Z,9.83
2022-10-05T05:40:55.000Z,9.85
2022-10-05T05:41:55.000Z,9.83
2022-10-05T05:42:55.000Z,9.89
2022-10-05T05:43:55.000Z,9.95
2022-10-05T05:44:55.000Z,9.93
2022-10-05T05:45:55.000Z,9.95
2022-10-05T05:46:55.000Z,10.01
2022-10-05T05:47:55.000Z,10.06
2022-10-05T05:48:55.000Z,10.09
2022-10-05T05:49:55.000Z,10.10
2022-10-05T05:50:54.000Z,10.14
2022-10-05T05:51:54.000Z,10.16
2022-10-05T05:52:54.000Z,10.16
2022-10-05T05:53:54.000Z,10.24
2022-10-05T05:54:54.000Z,10.24
2022-10-05T05:55:54.000Z,10.26
2022-10-05T05:56:54.000Z,10.31
2022-10-05T05:57:54.000Z,10.31
2022-10-05T05:58:54.000Z,10.31
2022-10-05T05:59:54.000Z,10.36
2022-10-05T06:00:54.000Z,10.35
2022-10-05T06:01:54.000Z,10.42
2022-10-05T06:02:54.000Z,10.44
2022-10-05T06:03:54.000Z,10.47
2022-10-05T06:04:54.000Z,10.51
2022-10-05T06:05:54.000Z,10.49
2022-10-05T06:06:54.000Z,10.55
2022-10-05T06:07:54.000Z,10.60
2022-10-05T06:08:54.000Z,10.62
2022-10-05T06:09:54.000Z,10.66
2022-10-05T06:10:54.000Z,10.70
2022-10-05T06:11:54.000Z,10.75
2022-10-05T06:12:54.000Z,10.76
2022-10-05T06:13:54.000Z,10.81
2022-10-05T06:14:54.000Z,10.84
2022-10-05T06:15:54.000Z,10.91
2022-10-05T06:16:54.000Z,10.99
2022-10-05T06:17:54.000Z,11.05
2022-10-05T06:18:54.000Z,11.12
2022-10-05T06:19:54.000Z,11.17
2022-10-05T06:20:54.000Z,11.17
2022-10-05T06:21:54.000Z,11.26
2022-10-05T06:22:54.000Z,11.31
2022-10-05T06:23:54.000Z,11.35
2022-10-05T06:24:54.000Z,11.39
2022-10-05T06:25:54.000Z,11.45
2022-10-05T06:26:54.000Z,11.49
2022-10-05T06:27:54.000Z,11.54
2022-10-05T06:28:54.000Z,11.56
2022-10-05T06:29:54.000Z,11.64
2022-10-05T06:30:54.000Z,11.66
2022-10-05T06:31:54.000Z,11.67
2022-10-05T06:32:54.000Z,11.72
2022-10-05T06:33:54.000Z,11.77
2022-10-05T06:34:54.000Z,11.81
2022-10-05T06:35:54.000Z,11.82
2022-10-05T06:36:54.000Z,11.87
2022-10-05T06:37:54.000Z,11.85
2022-10-05T06:38:54.000Z,11.88
2022-10-05T06:39:54.000Z,11.90
2022-10-05T06:40:54.000Z,11.97
2022-10-05T06:41:54.000Z,12.01
2022-10-05T06:42:54.000Z,12.00
2022-10-05T06:43:54.000Z,12.04
2022-10-05T06:44:54.000Z,12.04
2022-10-05T06:45:54.000Z,12.11
2022-10-05T06:46:54.000Z,12.08
2022-10-05T06:47:54.000Z,12.12
2022-10-05T06:48:54.000Z,12.13
2022-10-05T06:49:54.000Z,12.19
2022-10-05T06:50:54.000Z,12.18
2022-10-05T06:51:54.000Z,12.21
2022-10-05T06:52:54.000Z,12.19
2022-10-05T06:53:54.000Z,12.25
2022-10-05T06:54:54.000Z,12.25
2022-10-05T06:55:54.000Z,12.29
2022-10-05T06:56:54.000Z,12.31
2022-10-05T06:57:54.000Z,12.33
2022-10-05T06:58:54.000Z,12.38
2022-10-05T06:59:54.000Z,12.40
2022-10-05T07:00:54.000Z,12.48
2022-10-05T07:01:54.000Z,12.51
2022-10-05T07:02:54.000Z,12.55
2022-10-05T07:03:54.000Z,12.56
2022-10-05T07:04:53.000Z,12.62
2022-10-05T07:05:53.000Z,12.67
2022-10-05T07:06:53.000Z,12.71
2022-10-05T07:07:53.000Z,12.71
2022-10-05T07:08:53.000Z,12.77
2022-10-05T07:09:53.000Z,12.77
2022-10-05T07:10:53.000Z,12.81
2022-10-05T07:11:53.000Z,12.84
2022-10-05T07:12:53.000Z,12.87
2022-10-05T07:13:53.000Z,12.91
2022-10-05T07:14:53.000Z,12.88
2022-10-05T07:15:53.000Z,12.92
2022-10-05T07:16:53.000Z,12.91
2022-10-05T07:17:53.000Z,12.92
2022-10-05T07:18:53.000Z,12.92
2022-10-05T07:19:53.000Z,12.98
2022-10-05T07:20:53.000Z,12.95
2022-10-05T07:21:53.000Z,12.96
2022-10-05T07:22:53.000Z,12.96
2022-10-05T07:23:53.000Z,12.96
2022-10-05T07:24:53.000Z,12.99
2022-10-05T07:25:53.000Z,13.03
2022-10-05T07:26:53.000Z,13.04
2022-10-05T07:27:53.000Z,13.09
2022-10-05T07:28:53.000Z,13.12
2022-10-05T07:29:53.000Z,13.16
2022-10-05T07:30:53.000Z,13.21
2022-10-05T07:31:53.000Z,13.22
2022-10-05T07:32:53.000Z,13.24
2022-10-05T07:33:53.000Z,13.29
2022-10-05T07:34:53.000Z,13.31
2022-10-05T07:35:53.000Z,13.32
2022-10-05T07:36:53.000Z,13.41
2022-10-05T07:37:53.000Z,13.46
2022-10-05T07:38:53.000Z,13.48
2022-10-05T07:39:53.000Z,13.51
2022-10-05T07:40:53.000Z,13.57
2022-10-05T07:41:53.000Z,13.59
2022-10-05T07:42:53.000Z,13.63
2022-10-05T07:43:53.000Z,13.66
2022-10-05T07:44:53.000Z,13.71
2022-10-05T07:45:53.000Z,13.73
2022-10-05T07:46:53.000Z,13.76
2022-10-05T07:47:53.000Z,13.76
2022-10-05T07:48:53.000Z,13.83
2022-10-05T07:49:53.000Z,13.86
2022-10-05T07:50:53.000Z,13.87
2022-10-05T07:51:53.000Z,13.90
2022-10-05T07:52:53.000Z,13.96
2022-10-05T07:53:53.000Z,13.94
2022-10-05T07:54:53.000Z,13.99
2022-10-05T07:55:53.000Z,13.98
2022-10-05T07:56:53.000Z,13.99
2022-10-05T07:57:53.000Z,14.02
2022-10-05T07:58:53.000Z,14.04
2022-10-05T07:59:53.000Z,14.04
2022-10-05T08:00:53.000Z,14.08
2022-10-05T08:01:53.000Z,14.09
2022-10-05T08:02:53.000Z,14.13
2022-10-05T08:03:53.000Z,14.13
2022-10-05T08:04:53.000Z,14.20
2022-10-05T08:05:53.000Z,14.19
2022-10-05T08:06:53.000Z,14.23
2022-10-05T08:07:53.000Z,14.20
2022-10-05T08:08:53.000Z,14.24
2022-10-05T08:09:53.000Z,14.24
2022-10-05T08:10:53.000Z,14.30
2022-10-05T08:11:53.000Z,14.30
2022-10-05T08:12:53.000Z,14.36
2022-10-05T08:13:53.000Z,14.41
2022-10-05T08:14:53.000Z,14.42
2022-10-05T08:15:53.000Z,14.45
2022-10-05T08:16:53.000Z,14.48
2022-10-05T08:17:53.000Z,14.54
2022-10-05T08:18:52.000Z,14.56
2022-10-05T08:19:52.000Z,14.61
2022-10-05T08:20:52.000Z,14.67
2022-10-05T08:21:52.000Z,14.69
2022-10-05T08:22:52.000Z,14.74
2022-10-05T08:23:52.000Z,14.74
2022-10-05T08:24:52.000Z,14.78
2022-10-05T08:25:52.000Z,14.82
2022-10-05T08:26:52.000Z,14.80
2022-10-05T08:27:52.000Z,14.85
2022-10-05T08:28:52.000Z,14.86
2022-10-05T08:29:52.000Z,14.91
2022-10-05T08:30:52.000Z,14.94
2022-10-05T08:31:52.000Z,15.00
2022-10-05T08:32:52.000Z,15.01
2022-10-05T08:33:52.000Z,15.11
2022-10-05T08:34:52.000Z,15.16
2022-10-05T08:35:52.000Z,15.33
2022-10-05T08:36:52.000Z,15.41
2022-10-05T08:37:52.000Z,15.53
2022-10-05T08:38:52.000Z,15.67
2022-10-05T08:39:52.000Z,15.74
2022-10-05T08:40:52.000Z,15.78
2022-10-05T08:41:52.000Z,15.81
2022-10-05T08:42:52.000Z,15.84
2022-10-05T08:43:52.000Z,15.85
2022-10-05T08:44:52.000Z,15.86
2022-10-05T08:45:52.000Z,15.80
2022-10-05T08:46:52.000Z,15.80
2022-10-05T08:47:52.000Z,15.76
2022-10-05T08:48:52.000Z,15.74
2022-10-05T08:49:52.000Z,15.76
2022-10-05T08:50:52.000Z,15.74
2022-10-05T08:51:52.000Z,15.76
2022-10-05T08:52:52.000Z,15.78
2022-10-05T08:53:52.000Z,15.84
2022-10-05T08:54:52.000Z,15.80
2022-10-05T08:55:52.000Z,15.78
2022-10-05T08:56:52.000Z,15.77
2022-10-05T08:57:52.000Z,15.80
2022-10-05T08:58:52.000Z,15.81
2022-10-05T08:59:52.000Z,15.81
2022-10-05T09:00:52.000Z,15.80
2022-10-05T09:01:52.000Z,15.81
2022-10-05T09:02:52.000Z,15.81
2022-10-05T09:03:52.000Z,15.80
2022-10-05T09:04:52.000Z,15.85
2022-10-05T09:05:52.000Z,15.84
2022-10-05T09:06:52.000Z,15.86
2022-10-05T09:07:52.000Z,15.88
2022-10-05T09:08:52.000Z,15.92
2022-10-05T09:09:52.000Z,15.98
2022-10-05T09:10:52.000Z,15.96
2022-10-05T09:11:52.000Z,16.01
2022-10-05T09:12:52.000Z,16.06
2022-10-05T09:13:52.000Z,16.08
2022-10-05T09:14:52.000Z,16.14
2022-10-05T09:15:52.000Z,16.16
2022-10-05T09:16:52.000Z,16.18
2022-10-05T09:17:52.000Z,16.30
2022-10-05T09:18:52.000Z,16.36
2022-10-05T09:19:52.000Z,16.44
2022-10-05T09:20:52.000Z,16.48
2022-10-05T09:21:52.000Z,16.51
2022-10-05T09:22:52.000Z,16.52
2022-10-05T09:23:52.000Z,16.52
2022-10-05T09:24:52.000Z,16.55
2022-10-05T09:25:52.000Z,16.59
2022-10-05T09:26:52.000Z,16.63
2022-10-05T09:27:52.000Z,16.67
2022-10-05T09:28:52.000Z,16.72
2022-10-05T09:29:52.000Z,16.75
2022-10-05T09:30:52.000Z,16.84
2022-10-05T09:31:51.000Z,16.85
2022-10-05T09:32:51.000Z,16.96
2022-10-05T09:33:51.000Z,17.00
2022-10-05T09:34:51.000Z,17.07
2022-10-05T09:35:51.000Z,17.15
2022-10-05T09:36:51.000Z,17.24
2022-10-05T09:37:51.000Z,17.33
2022-10-05T09:38:51.000Z,17.40
2022-10-05T09:39:51.000Z,17.51
2022-10-05T09:40:51.000Z,17.58
2022-10-05T09:41:51.000Z,17.62
2022-10-05T09:42:51.000Z,17.71
2022-10-05T09:43:51.000Z,17.79
2022-10-05T09:44:51.000Z,17.84
2022-10-05T09:45:51.000Z,17.99
2022-10-05T09:46:51.000Z,18.11
2022-10-05T09:47:51.000Z,18.28
2022-10-05T09:48:51.000Z,18.44
2022-10-05T09:49:51.000Z,18.65
2022-10-05T09:50:51.000Z,18.82
2022-10-05T09:51:51.000Z,18.93
2022-10-05T09:52:51.000Z,18.97
2022-10-05T09:53:51.000Z,19.07
2022-10-05T09:54:51.000Z,19.15
2022-10-05T09:55:51.000Z,19.32
2022-10-05T09:56:51.000Z,19.53
2022-10-05T09:57:51.000Z,19.64
2022-10-05T09:58:51.000Z,19.82
2022-10-05T09:59:51.000Z,19.97
2022-10-05T10:00:51.000Z,20.15
2022-10-05T10:01:51.000Z,20.26
2022-10-05T10:02:51.000Z,20.48
2022-10-05T10:03:51.000Z,20.75
2022-10-05T10:04:51.000Z,21.01
2022-10-05T10:05:51.000Z,21.18
2022-10-05T10:06:51.000Z,21.21
2022-10-05T10:07:51.000Z,21.18
2022-10-05T10:08:51.000Z,21.13
2022-10-05T10:09:51.000Z,20.97
2022-10-05T10:10:51.000Z,20.85
2022-10-05T10:11:51.000Z,20.96
2022-10-05T10:12:51.000Z,21.06
2022-10-05T10:13:51.000Z,20.96
2022-10-05T10:14:51.000Z,20.96
2022-10-05T10:15:51.000Z,20.81
2022-10-05T10:16:51.000Z,20.88
2022-10-05T10:17:51.000Z,21.01
2022-10-05T10:18:51.000Z,21.13
2022-10-05T10:19:51.000Z,21.12
2022-10-05T10:20:51.000Z,21.21
2022-10-05T10:21:51.000Z,21.30
2022-10-05T10:22:51.000Z,21.37
2022-10-05T10:23:51.000Z,21.43
2022-10-05T10:24:51.000Z,21.45
2022-10-05T10:25:51.000Z,21.56
2022-10-05T10:26:51.000Z,21.68
2022-10-05T10:27:51.000Z,21.74
2022-10-05T10:28:51.000Z,21.81
2022-10-05T10:29:51.000Z,21.99
2022-10-05T10:30:51.000Z,22.11
2022-10-05T10:31:51.000Z,22.29
2022-10-05T10:32:51.000Z,22.49
2022-10-05T10:33:51.000Z,22.63
2022-10-05T10:34:51.000Z,22.75
2022-10-05T10:35:51.000Z,22.75
2022-10-05T10:36:51.000Z,22.70
2022-10-05T10:37:51.000Z,22.51
2022-10-05T10:38:51.000Z,22.42
2022-10-05T10:39:51.000Z,22.45
2022-10-05T10:40:51.000Z,22.57
2022-10-05T10:41:51.000Z,22.56
2022-10-05T10:42:51.000Z,22.60
2022-10-05T10:43:51.000Z,22.66
2022-10-05T10:44:50.000Z,22.76
2022-10-05T10:45:50.000Z,22.88
2022-10-05T10:46:50.000Z,23.00
2022-10-05T10:47:50.000Z,23.12
2022-10-05T10:48:50.000Z,23.18
2022-10-05T10:49:50.000Z,23.19
2022-10-05T10:50:50.000Z,23.32
2022-10-05T10:51:50.000Z,23.45
2022-10-05T10:52:50.000Z,23.64
2022-10-05T10:53:50.000Z,23.82
2022-10-05T10:54:50.000Z,24.00
2022-10-05T10:55:50.000Z,24.14
2022-10-05T10:56:50.000Z,24.19
2022-10-05T10:57:50.000Z,24.16
2022-10-05T10:58:50.000Z,24.08
2022-10-05T10:59:50.000Z,23.86
2022-10-05T11:00:50.000Z,23.54
2022-10-05T11:01:50.000Z,23.29
2022-10-05T11:02:50.000Z,22.85
2022-10-05T11:03:50.000Z,22.61
2022-10-05T11:04:50.000Z,22.67
2022-10-05T11:05:50.000Z,22.81
2022-10-05T11:06:50.000Z,23.04
2022-10-05T11:07:50.000Z,23.32
2022-10-05T11:08:50.000Z,23.47
2022-10-05T11:09:50.000Z,23.57
2022-10-05T11:10:50.000Z,23.72
2022-10-05T11:11:50.000Z,23.77
2022-10-05T11:12:50.000Z,23.67
2022-10-05T11:13:50.000Z,23.71
2022-10-05T11:14:50.000Z,23.78
2022-10-05T11:15:50.000Z,23.74
2022-10-05T11:16:50.000Z,23.63
2022-10-05T11:17:50.000Z,23.54
2022-10-05T11:18:50.000Z,23.42
2022-10-05T11:19:50.000Z,23.44
2022-10-05T11:20:50.000Z,23.42
2022-10-05T11:21:50.000Z,23.49
2022-10-05T11:22:50.000Z,23.54
2022-10-05T11:23:50.000Z,23.44
2022-10-05T11:24:50.000Z,23.32
2022-10-05T11:25:50.000Z,22.88
2022-10-05T11:26:50.000Z,22.69
2022-10-05T11:27:50.000Z,22.42
2022-10-05T11:28:50.000Z,22.23
2022-10-05T11:29:50.000Z,21.99
2022-10-05T11:30:50.000Z,21.75
2022-10-05T11:31:50.000Z,21.59
2022-10-05T11:32:50.000Z,21.38
2022-10-05T11:33:50.000Z,21.31
2022-10-05T11:34:50.000Z,21.15
2022-10-05T11:35:50.000Z,20.93
2022-10-05T11:36:50.000Z,20.87
2022-10-05T11:37:50.000Z,20.83
2022-10-05T11:38:50.000Z,20.85
2022-10-05T11:39:50.000Z,20.81
2022-10-05T11:40:50.000Z,20.73
2022-10-05T11:41:50.000Z,20.73
2022-10-05T11:42:50.000Z,20.60
2022-10-05T11:43:50.000Z,20.57
2022-10-05T11:44:50.000Z,20.57
2022-10-05T11:45:50.000Z,20.64
2022-10-05T11:46:50.000Z,20.72
2022-10-05T11:47:50.000Z,20.75
2022-10-05T11:48:50.000Z,20.81
2022-10-05T11:49:50.000Z,20.93
2022-10-05T11:50:50.000Z,21.06
2022-10-05T11:51:50.000Z,21.16
2022-10-05T11:52:50.000Z,21.12
2022-10-05T11:53:50.000Z,21.15
2022-10-05T11:54:50.000Z,21.22
2022-10-05T11:55:50.000Z,21.16
2022-10-05T11:56:50.000Z,21.16
2022-10-05T11:57:49.000Z,21.12
2022-10-05T11:58:49.000Z,21.19
2022-10-05T11:59:49.000Z,21.31
2022-10-05T12:00:49.000Z,21.30
2022-10-05T12:01:49.000Z,21.30
2022-10-05T12:02:49.000Z,21.45
2022-10-05T12:03:49.000Z,21.67
2022-10-05T12:04:49.000Z,21.82
2022-10-05T12:05:49.000Z,22.06
2022-10-05T12:06:49.000Z,22.23
2022-10-05T12:07:49.000Z,22.42
2022-10-05T12:08:49.000Z,22.61
2022-10-05T12:09:49.000Z,22.74
2022-10-05T12:10:49.000Z,22.81
2022-10-05T12:11:49.000Z,22.81
2022-10-05T12:12:49.000Z,22.79
2022-10-05T12:13:49.000Z,22.67
2022-10-05T12:14:49.000Z,22.70
2022-10-05T12:15:49.000Z,22.74
2022-10-05T12:16:49.000Z,22.75
2022-10-05T12:17:49.000Z,22.74
2022-10-05T12:18:49.000Z,22.61
2022-10-05T12:19:49.000Z,22.57
2022-10-05T12:20:49.000Z,22.63
2022-10-05T12:21:49.000Z,22.66
2022-10-05T12:22:49.000Z,22.79
2022-10-05T12:23:49.000Z,22.93
2022-10-05T12:24:49.000Z,22.99
2022-10-05T12:25:49.000Z,23.14
2022-10-05T12:26:49.000Z,23.29
2022-10-05T12:27:49.000Z,23.38
2022-10-05T12:28:49.000Z,23.47
2022-10-05T12:29:49.000Z,23.57
2022-10-05T12:30:49.000Z,23.69
2022-10-05T12:31:49.000Z,23.68
2022-10-05T12:32:49.000Z,23.77
2022-10-05T12:33:49.000Z,23.93
2022-10-05T12:34:49.000Z,24.06
2022-10-05T12:35:49.000Z,24.12
2022-10-05T12:36:49.000Z,24.11
2022-10-05T12:37:49.000Z,24.06
2022-10-05T12:38:49.000Z,24.09
2022-10-05T12:39:49.000Z,24.18
2022-10-05T12:40:49.000Z,24.18
2022-10-05T12:41:49.000Z,24.23
2022-10-05T12:42:49.000Z,24.31
2022-10-05T12:43:49.000Z,24.39
2022-10-05T12:44:49.000Z,24.51
2022-10-05T12:45:49.000Z,24.59
2022-10-05T12:46:49.000Z,24.63
2022-10-05T12:47:49.000Z,24.60
2022-10-05T12:48:49.000Z,24.49
2022-10-05T12:49:49.000Z,24.45
2022-10-05T12:50:49.000Z,24.49
2022-10-05T12:51:49.000Z,24.53
2022-10-05T12:52:49.000Z,24.46
2022-10-05T12:53:49.000Z,24.45
2022-10-05T12:54:49.000Z,24.42
2022-10-05T12:55:49.000Z,24.41
2022-10-05T12:56:49.000Z,24.31
2022-10-05T12:57:49.000Z,24.41